sensor_id;sensor_type;location;lat;lon;timestamp;P1;durP1;ratioP1;P2;durP2;ratioP2
74335;SDS011;62755;-33.398;-70.572;2023-02-15T00:02:47;20.15;;;3.17;;
74335;SDS011;62755;-33.398;-70.572;2023-02-15T00:05:36;14.13;;;3.10;;
74335;SDS011;62755;-33.398;-70.572;2023-02-15T00:08:25;22.00;;;3.22;;
74335;SDS011;62755;-33.398;-70.572;2023-02-15T00:11:15;16.02;;;4.32;;
74335;SDS011;62755;-33.398;-70.572;2023-02-15T00:14:27;14.73;;;3.65;;
74335;SDS011;62755;-33.398;-70.572;2023-02-15T00:17:16;13.20;;;4.75;;
74335;SDS011;62755;-33.398;-70.572;2023-02-15T00:20:06;12.30;;;3.38;;
74335;SDS011;62755;-33.398;-70.572;2023-02-15T00:22:56;14.27;;;3.53;;
74335;SDS011;62755;-33.398;-70.572;2023-02-15T00:25:46;10.52;;;3.40;;
74335;SDS011;62755;-33.398;-70.572;2023-02-15T00:28:35;16.05;;;3.88;;
74335;SDS011;62755;-33.398;-70.572;2023-02-15T00:31:27;16.50;;;4.15;;
74335;SDS011;62755;-33.398;-70.572;2023-02-15T00:34:19;9.63;;;3.45;;
74335;SDS011;62755;-33.398;-70.572;2023-02-15T00:37:10;11.93;;;4.13;;
74335;SDS011;62755;-33.398;-70.572;2023-02-15T00:39:59;17.30;;;4.70;;
74335;SDS011;62755;-33.398;-70.572;2023-02-15T00:42:49;16.25;;;3.70;;
74335;SDS011;62755;-33.398;-70.572;2023-02-15T00:45:38;16.48;;;4.47;;
74335;SDS011;62755;-33.398;-70.572;2023-02-15T00:48:29;15.45;;;3.92;;
74335;SDS011;62755;-33.398;-70.572;2023-02-15T00:51:19;22.75;;;3.40;;
74335;SDS011;62755;-33.398;-70.572;2023-02-15T00:54:08;13.32;;;3.63;;
74335;SDS011;62755;-33.398;-70.572;2023-02-15T00:56:57;11.68;;;3.00;;
74335;SDS011;62755;-33.398;-70.572;2023-02-15T00:59:47;16.83;;;3.55;;
74335;SDS011;62755;-33.398;-70.572;2023-02-15T01:02:36;16.02;;;3.17;;
74335;SDS011;62755;-33.398;-70.572;2023-02-15T01:05:27;13.75;;;3.88;;
74335;SDS011;62755;-33.398;-70.572;2023-02-15T01:08:17;24.52;;;6.82;;
74335;SDS011;62755;-33.398;-70.572;2023-02-15T01:11:07;14.60;;;3.90;;
74335;SDS011;62755;-33.398;-70.572;2023-02-15T01:13:57;19.05;;;4.63;;
74335;SDS011;62755;-33.398;-70.572;2023-02-15T01:16:48;23.05;;;4.10;;
74335;SDS011;62755;-33.398;-70.572;2023-02-15T01:19:38;11.85;;;4.07;;
74335;SDS011;62755;-33.398;-70.572;2023-02-15T01:22:29;21.48;;;4.05;;
74335;SDS011;62755;-33.398;-70.572;2023-02-15T01:25:18;21.50;;;3.90;;
74335;SDS011;62755;-33.398;-70.572;2023-02-15T01:28:08;16.27;;;2.60;;
74335;SDS011;62755;-33.398;-70.572;2023-02-15T01:30:58;21.00;;;3.83;;
74335;SDS011;62755;-33.398;-70.572;2023-02-15T01:33:47;10.98;;;3.33;;
74335;SDS011;62755;-33.398;-70.572;2023-02-15T01:36:37;12.27;;;2.97;;
74335;SDS011;62755;-33.398;-70.572;2023-02-15T01:39:28;17.48;;;4.10;;
74335;SDS011;62755;-33.398;-70.572;2023-02-15T01:42:20;10.20;;;3.17;;
74335;SDS011;62755;-33.398;-70.572;2023-02-15T01:45:16;16.35;;;2.92;;
74335;SDS011;62755;-33.398;-70.572;2023-02-15T01:48:12;11.63;;;3.13;;
74335;SDS011;62755;-33.398;-70.572;2023-02-15T01:51:08;16.50;;;3.03;;
74335;SDS011;62755;-33.398;-70.572;2023-02-15T01:53:59;15.75;;;4.40;;
74335;SDS011;62755;-33.398;-70.572;2023-02-15T01:56:55;9.93;;;2.88;;
74335;SDS011;62755;-33.398;-70.572;2023-02-15T02:02:41;17.17;;;3.88;;
74335;SDS011;62755;-33.398;-70.572;2023-02-15T02:05:33;14.75;;;3.88;;
74335;SDS011;62755;-33.398;-70.572;2023-02-15T02:08:22;16.80;;;2.92;;
74335;SDS011;62755;-33.398;-70.572;2023-02-15T02:11:13;11.32;;;3.45;;
74335;SDS011;62755;-33.398;-70.572;2023-02-15T02:14:04;23.05;;;4.50;;
74335;SDS011;62755;-33.398;-70.572;2023-02-15T02:16:56;8.63;;;3.15;;
74335;SDS011;62755;-33.398;-70.572;2023-02-15T02:23:16;20.30;;;3.03;;
74335;SDS011;62755;-33.398;-70.572;2023-02-15T02:30:06;15.48;;;3.00;;
74335;SDS011;62755;-33.398;-70.572;2023-02-15T02:33:18;20.40;;;3.42;;
74335;SDS011;62755;-33.398;-70.572;2023-02-15T02:36:24;19.92;;;4.35;;
74335;SDS011;62755;-33.398;-70.572;2023-02-15T02:39:23;15.02;;;3.35;;
74335;SDS011;62755;-33.398;-70.572;2023-02-15T02:42:22;15.25;;;2.97;;
74335;SDS011;62755;-33.398;-70.572;2023-02-15T02:45:19;12.05;;;3.38;;
74335;SDS011;62755;-33.398;-70.572;2023-02-15T02:48:14;15.82;;;3.03;;
74335;SDS011;62755;-33.398;-70.572;2023-02-15T02:51:08;16.33;;;2.88;;
74335;SDS011;62755;-33.398;-70.572;2023-02-15T02:53:58;20.08;;;3.85;;
74335;SDS011;62755;-33.398;-70.572;2023-02-15T02:56:53;16.25;;;3.30;;
74335;SDS011;62755;-33.398;-70.572;2023-02-15T02:59:47;18.02;;;3.47;;
74335;SDS011;62755;-33.398;-70.572;2023-02-15T03:02:40;14.73;;;3.20;;
74335;SDS011;62755;-33.398;-70.572;2023-02-15T03:05:35;15.57;;;3.28;;
74335;SDS011;62755;-33.398;-70.572;2023-02-15T03:08:30;17.35;;;3.35;;
74335;SDS011;62755;-33.398;-70.572;2023-02-15T03:11:23;11.23;;;2.72;;
74335;SDS011;62755;-33.398;-70.572;2023-02-15T03:14:12;16.13;;;3.10;;
74335;SDS011;62755;-33.398;-70.572;2023-02-15T03:17:04;11.63;;;2.60;;
74335;SDS011;62755;-33.398;-70.572;2023-02-15T03:19:58;16.70;;;3.72;;
74335;SDS011;62755;-33.398;-70.572;2023-02-15T03:22:53;16.13;;;3.20;;
74335;SDS011;62755;-33.398;-70.572;2023-02-15T03:25:46;21.65;;;3.28;;
74335;SDS011;62755;-33.398;-70.572;2023-02-15T03:28:41;13.70;;;3.08;;
74335;SDS011;62755;-33.398;-70.572;2023-02-15T03:31:35;10.65;;;2.35;;
74335;SDS011;62755;-33.398;-70.572;2023-02-15T03:34:28;22.45;;;2.33;;
74335;SDS011;62755;-33.398;-70.572;2023-02-15T03:37:19;12.77;;;2.90;;
74335;SDS011;62755;-33.398;-70.572;2023-02-15T03:40:17;14.05;;;2.50;;
74335;SDS011;62755;-33.398;-70.572;2023-02-15T03:43:29;11.60;;;2.60;;
74335;SDS011;62755;-33.398;-70.572;2023-02-15T03:46:26;16.75;;;2.83;;
74335;SDS011;62755;-33.398;-70.572;2023-02-15T03:49:21;37.05;;;3.40;;
74335;SDS011;62755;-33.398;-70.572;2023-02-15T03:52:13;22.15;;;3.50;;
74335;SDS011;62755;-33.398;-70.572;2023-02-15T03:55:04;18.75;;;3.03;;
74335;SDS011;62755;-33.398;-70.572;2023-02-15T03:57:56;9.75;;;2.38;;
74335;SDS011;62755;-33.398;-70.572;2023-02-15T04:01:03;18.73;;;3.03;;
74335;SDS011;62755;-33.398;-70.572;2023-02-15T04:04:18;13.95;;;3.25;;
74335;SDS011;62755;-33.398;-70.572;2023-02-15T04:07:10;15.70;;;3.25;;
74335;SDS011;62755;-33.398;-70.572;2023-02-15T04:10:00;14.88;;;2.75;;
74335;SDS011;62755;-33.398;-70.572;2023-02-15T04:13:08;13.20;;;3.03;;
74335;SDS011;62755;-33.398;-70.572;2023-02-15T04:15:57;14.50;;;3.08;;
74335;SDS011;62755;-33.398;-70.572;2023-02-15T04:18:51;19.08;;;2.67;;
74335;SDS011;62755;-33.398;-70.572;2023-02-15T04:21:57;24.17;;;3.47;;
74335;SDS011;62755;-33.398;-70.572;2023-02-15T04:25:03;13.40;;;2.40;;
74335;SDS011;62755;-33.398;-70.572;2023-02-15T04:27:59;23.90;;;3.45;;
74335;SDS011;62755;-33.398;-70.572;2023-02-15T04:30:50;25.65;;;3.70;;
74335;SDS011;62755;-33.398;-70.572;2023-02-15T04:33:39;12.85;;;3.25;;
74335;SDS011;62755;-33.398;-70.572;2023-02-15T04:36:29;16.73;;;3.25;;
74335;SDS011;62755;-33.398;-70.572;2023-02-15T04:39:19;18.30;;;2.90;;
74335;SDS011;62755;-33.398;-70.572;2023-02-15T04:42:08;25.25;;;3.15;;
74335;SDS011;62755;-33.398;-70.572;2023-02-15T04:44:57;13.73;;;2.78;;
74335;SDS011;62755;-33.398;-70.572;2023-02-15T04:47:49;15.40;;;2.60;;
74335;SDS011;62755;-33.398;-70.572;2023-02-15T04:50:38;24.52;;;4.72;;
74335;SDS011;62755;-33.398;-70.572;2023-02-15T04:53:27;26.20;;;3.55;;
74335;SDS011;62755;-33.398;-70.572;2023-02-15T04:56:17;21.40;;;3.30;;
74335;SDS011;62755;-33.398;-70.572;2023-02-15T04:59:08;14.93;;;2.58;;
74335;SDS011;62755;-33.398;-70.572;2023-02-15T05:01:58;17.88;;;3.58;;
74335;SDS011;62755;-33.398;-70.572;2023-02-15T05:04:49;20.50;;;5.55;;
74335;SDS011;62755;-33.398;-70.572;2023-02-15T05:07:39;15.43;;;5.35;;
74335;SDS011;62755;-33.398;-70.572;2023-02-15T05:10:28;16.88;;;3.65;;
74335;SDS011;62755;-33.398;-70.572;2023-02-15T05:13:17;10.88;;;3.13;;
74335;SDS011;62755;-33.398;-70.572;2023-02-15T05:16:06;17.85;;;2.92;;
74335;SDS011;62755;-33.398;-70.572;2023-02-15T05:18:58;17.85;;;2.72;;
74335;SDS011;62755;-33.398;-70.572;2023-02-15T05:21:49;14.13;;;2.72;;
74335;SDS011;62755;-33.398;-70.572;2023-02-15T05:24:39;19.38;;;3.15;;
74335;SDS011;62755;-33.398;-70.572;2023-02-15T05:27:44;18.42;;;2.70;;
74335;SDS011;62755;-33.398;-70.572;2023-02-15T05:30:50;13.18;;;2.45;;
74335;SDS011;62755;-33.398;-70.572;2023-02-15T05:33:47;14.30;;;2.67;;
74335;SDS011;62755;-33.398;-70.572;2023-02-15T05:36:36;19.52;;;2.72;;
74335;SDS011;62755;-33.398;-70.572;2023-02-15T05:39:27;15.60;;;2.72;;
74335;SDS011;62755;-33.398;-70.572;2023-02-15T05:42:16;18.00;;;2.63;;
74335;SDS011;62755;-33.398;-70.572;2023-02-15T05:45:06;16.35;;;2.58;;
74335;SDS011;62755;-33.398;-70.572;2023-02-15T05:47:56;10.65;;;2.60;;
74335;SDS011;62755;-33.398;-70.572;2023-02-15T05:50:46;14.65;;;3.03;;
74335;SDS011;62755;-33.398;-70.572;2023-02-15T05:53:44;6.38;;;2.13;;
74335;SDS011;62755;-33.398;-70.572;2023-02-15T05:56:35;12.20;;;2.65;;
74335;SDS011;62755;-33.398;-70.572;2023-02-15T05:59:24;9.13;;;2.97;;
74335;SDS011;62755;-33.398;-70.572;2023-02-15T06:02:14;13.07;;;2.38;;
74335;SDS011;62755;-33.398;-70.572;2023-02-15T06:05:03;20.08;;;3.53;;
74335;SDS011;62755;-33.398;-70.572;2023-02-15T06:07:53;15.85;;;2.70;;
74335;SDS011;62755;-33.398;-70.572;2023-02-15T06:10:45;13.80;;;2.70;;
74335;SDS011;62755;-33.398;-70.572;2023-02-15T06:13:36;18.17;;;3.20;;
74335;SDS011;62755;-33.398;-70.572;2023-02-15T06:16:26;10.27;;;2.58;;
74335;SDS011;62755;-33.398;-70.572;2023-02-15T06:19:16;15.18;;;2.22;;
74335;SDS011;62755;-33.398;-70.572;2023-02-15T06:22:06;15.25;;;2.65;;
74335;SDS011;62755;-33.398;-70.572;2023-02-15T06:24:56;15.57;;;2.80;;
74335;SDS011;62755;-33.398;-70.572;2023-02-15T06:27:45;13.35;;;3.03;;
74335;SDS011;62755;-33.398;-70.572;2023-02-15T06:30:36;18.85;;;2.97;;
74335;SDS011;62755;-33.398;-70.572;2023-02-15T06:33:26;10.77;;;2.80;;
74335;SDS011;62755;-33.398;-70.572;2023-02-15T06:36:16;11.10;;;2.42;;
74335;SDS011;62755;-33.398;-70.572;2023-02-15T06:39:05;13.52;;;2.97;;
74335;SDS011;62755;-33.398;-70.572;2023-02-15T06:41:54;13.10;;;2.92;;
74335;SDS011;62755;-33.398;-70.572;2023-02-15T06:44:45;13.65;;;2.38;;
74335;SDS011;62755;-33.398;-70.572;2023-02-15T06:47:36;11.35;;;2.88;;
74335;SDS011;62755;-33.398;-70.572;2023-02-15T06:50:26;12.90;;;3.10;;
74335;SDS011;62755;-33.398;-70.572;2023-02-15T06:53:15;12.38;;;3.10;;
74335;SDS011;62755;-33.398;-70.572;2023-02-15T06:56:05;12.55;;;3.05;;
74335;SDS011;62755;-33.398;-70.572;2023-02-15T06:58:54;16.90;;;2.35;;
74335;SDS011;62755;-33.398;-70.572;2023-02-15T07:01:44;9.02;;;2.67;;
74335;SDS011;62755;-33.398;-70.572;2023-02-15T07:04:35;15.10;;;2.25;;
74335;SDS011;62755;-33.398;-70.572;2023-02-15T07:07:24;15.30;;;2.88;;
74335;SDS011;62755;-33.398;-70.572;2023-02-15T07:10:13;27.88;;;3.10;;
74335;SDS011;62755;-33.398;-70.572;2023-02-15T07:13:04;17.42;;;3.28;;
74335;SDS011;62755;-33.398;-70.572;2023-02-15T07:15:52;13.45;;;2.92;;
74335;SDS011;62755;-33.398;-70.572;2023-02-15T07:18:41;13.18;;;2.38;;
74335;SDS011;62755;-33.398;-70.572;2023-02-15T07:21:32;12.93;;;3.00;;
74335;SDS011;62755;-33.398;-70.572;2023-02-15T07:24:21;18.95;;;2.80;;
74335;SDS011;62755;-33.398;-70.572;2023-02-15T07:27:11;19.00;;;3.05;;
74335;SDS011;62755;-33.398;-70.572;2023-02-15T07:30:00;23.60;;;3.40;;
74335;SDS011;62755;-33.398;-70.572;2023-02-15T07:32:50;17.95;;;3.03;;
74335;SDS011;62755;-33.398;-70.572;2023-02-15T07:35:59;20.38;;;2.90;;
74335;SDS011;62755;-33.398;-70.572;2023-02-15T07:38:54;14.52;;;2.35;;
74335;SDS011;62755;-33.398;-70.572;2023-02-15T07:41:43;22.67;;;2.58;;
74335;SDS011;62755;-33.398;-70.572;2023-02-15T07:44:33;13.95;;;2.75;;
74335;SDS011;62755;-33.398;-70.572;2023-02-15T07:47:22;27.88;;;2.75;;
74335;SDS011;62755;-33.398;-70.572;2023-02-15T07:50:12;16.15;;;2.78;;
74335;SDS011;62755;-33.398;-70.572;2023-02-15T07:53:01;15.50;;;3.33;;
74335;SDS011;62755;-33.398;-70.572;2023-02-15T07:55:52;11.43;;;2.55;;
74335;SDS011;62755;-33.398;-70.572;2023-02-15T07:58:42;25.55;;;3.08;;
74335;SDS011;62755;-33.398;-70.572;2023-02-15T08:01:41;10.73;;;2.50;;
74335;SDS011;62755;-33.398;-70.572;2023-02-15T08:04:31;17.77;;;2.65;;
74335;SDS011;62755;-33.398;-70.572;2023-02-15T08:07:20;7.40;;;2.60;;
74335;SDS011;62755;-33.398;-70.572;2023-02-15T08:10:10;19.20;;;3.10;;
74335;SDS011;62755;-33.398;-70.572;2023-02-15T08:13:21;12.27;;;3.08;;
74335;SDS011;62755;-33.398;-70.572;2023-02-15T08:16:10;12.75;;;2.80;;
74335;SDS011;62755;-33.398;-70.572;2023-02-15T08:19:00;13.77;;;2.60;;
74335;SDS011;62755;-33.398;-70.572;2023-02-15T08:21:51;12.10;;;3.00;;
74335;SDS011;62755;-33.398;-70.572;2023-02-15T08:24:43;17.02;;;2.75;;
74335;SDS011;62755;-33.398;-70.572;2023-02-15T08:27:32;19.77;;;3.25;;
74335;SDS011;62755;-33.398;-70.572;2023-02-15T08:30:24;16.23;;;2.72;;
74335;SDS011;62755;-33.398;-70.572;2023-02-15T08:33:14;15.05;;;3.13;;
74335;SDS011;62755;-33.398;-70.572;2023-02-15T08:36:04;15.20;;;2.80;;
74335;SDS011;62755;-33.398;-70.572;2023-02-15T08:38:57;20.95;;;3.40;;
74335;SDS011;62755;-33.398;-70.572;2023-02-15T08:41:47;14.05;;;2.83;;
74335;SDS011;62755;-33.398;-70.572;2023-02-15T08:44:37;15.13;;;2.75;;
74335;SDS011;62755;-33.398;-70.572;2023-02-15T08:47:28;13.98;;;2.80;;
74335;SDS011;62755;-33.398;-70.572;2023-02-15T08:50:18;12.90;;;2.60;;
74335;SDS011;62755;-33.398;-70.572;2023-02-15T08:53:07;14.52;;;2.80;;
74335;SDS011;62755;-33.398;-70.572;2023-02-15T08:55:57;16.85;;;3.40;;
74335;SDS011;62755;-33.398;-70.572;2023-02-15T08:58:47;11.20;;;3.20;;
74335;SDS011;62755;-33.398;-70.572;2023-02-15T09:01:37;13.05;;;2.85;;
74335;SDS011;62755;-33.398;-70.572;2023-02-15T09:04:28;17.02;;;3.13;;
74335;SDS011;62755;-33.398;-70.572;2023-02-15T09:07:18;15.57;;;3.05;;
74335;SDS011;62755;-33.398;-70.572;2023-02-15T09:10:08;16.77;;;2.95;;
74335;SDS011;62755;-33.398;-70.572;2023-02-15T09:12:58;15.35;;;2.90;;
74335;SDS011;62755;-33.398;-70.572;2023-02-15T09:15:47;22.48;;;3.67;;
74335;SDS011;62755;-33.398;-70.572;2023-02-15T09:18:37;18.58;;;3.25;;
74335;SDS011;62755;-33.398;-70.572;2023-02-15T09:21:29;17.02;;;2.60;;
74335;SDS011;62755;-33.398;-70.572;2023-02-15T09:24:19;15.55;;;2.58;;
74335;SDS011;62755;-33.398;-70.572;2023-02-15T09:27:08;19.98;;;3.15;;
74335;SDS011;62755;-33.398;-70.572;2023-02-15T09:29:58;12.35;;;2.50;;
74335;SDS011;62755;-33.398;-70.572;2023-02-15T09:32:47;14.20;;;3.15;;
74335;SDS011;62755;-33.398;-70.572;2023-02-15T09:35:37;18.77;;;3.25;;
74335;SDS011;62755;-33.398;-70.572;2023-02-15T09:38:28;16.25;;;2.70;;
74335;SDS011;62755;-33.398;-70.572;2023-02-15T09:41:22;14.60;;;3.67;;
74335;SDS011;62755;-33.398;-70.572;2023-02-15T09:44:23;15.63;;;2.65;;
74335;SDS011;62755;-33.398;-70.572;2023-02-15T09:47:26;7.47;;;3.25;;
74335;SDS011;62755;-33.398;-70.572;2023-02-15T09:50:33;16.45;;;2.67;;
74335;SDS011;62755;-33.398;-70.572;2023-02-15T09:53:38;11.50;;;3.10;;
74335;SDS011;62755;-33.398;-70.572;2023-02-15T09:56:43;19.35;;;2.97;;
74335;SDS011;62755;-33.398;-70.572;2023-02-15T09:59:39;15.23;;;3.75;;
74335;SDS011;62755;-33.398;-70.572;2023-02-15T10:02:39;15.45;;;3.35;;
74335;SDS011;62755;-33.398;-70.572;2023-02-15T10:05:45;13.75;;;3.35;;
74335;SDS011;62755;-33.398;-70.572;2023-02-15T10:12:21;13.50;;;3.67;;
74335;SDS011;62755;-33.398;-70.572;2023-02-15T10:18:26;22.02;;;4.20;;
74335;SDS011;62755;-33.398;-70.572;2023-02-15T10:21:37;16.52;;;3.97;;
74335;SDS011;62755;-33.398;-70.572;2023-02-15T10:24:40;20.88;;;4.30;;
74335;SDS011;62755;-33.398;-70.572;2023-02-15T10:27:43;22.42;;;4.57;;
74335;SDS011;62755;-33.398;-70.572;2023-02-15T10:30:36;9.77;;;3.72;;
74335;SDS011;62755;-33.398;-70.572;2023-02-15T10:33:36;13.60;;;3.00;;
74335;SDS011;62755;-33.398;-70.572;2023-02-15T10:36:29;12.20;;;3.20;;
74335;SDS011;62755;-33.398;-70.572;2023-02-15T10:39:36;14.88;;;3.88;;
74335;SDS011;62755;-33.398;-70.572;2023-02-15T10:42:35;23.10;;;6.28;;
74335;SDS011;62755;-33.398;-70.572;2023-02-15T10:45:40;19.38;;;4.30;;
74335;SDS011;62755;-33.398;-70.572;2023-02-15T10:48:49;19.95;;;3.85;;
74335;SDS011;62755;-33.398;-70.572;2023-02-15T10:52:01;21.98;;;3.90;;
74335;SDS011;62755;-33.398;-70.572;2023-02-15T10:55:03;25.77;;;4.50;;
74335;SDS011;62755;-33.398;-70.572;2023-02-15T10:58:03;16.98;;;4.32;;
74335;SDS011;62755;-33.398;-70.572;2023-02-15T11:01:02;26.05;;;4.07;;
74335;SDS011;62755;-33.398;-70.572;2023-02-15T11:04:24;25.50;;;5.13;;
74335;SDS011;62755;-33.398;-70.572;2023-02-15T11:07:25;17.83;;;4.13;;
74335;SDS011;62755;-33.398;-70.572;2023-02-15T11:10:24;22.63;;;5.60;;
74335;SDS011;62755;-33.398;-70.572;2023-02-15T11:13:20;18.15;;;4.57;;
74335;SDS011;62755;-33.398;-70.572;2023-02-15T11:16:14;30.33;;;6.30;;
74335;SDS011;62755;-33.398;-70.572;2023-02-15T11:19:08;23.52;;;5.05;;
74335;SDS011;62755;-33.398;-70.572;2023-02-15T11:22:04;26.42;;;5.53;;
74335;SDS011;62755;-33.398;-70.572;2023-02-15T11:24:54;24.23;;;5.53;;
74335;SDS011;62755;-33.398;-70.572;2023-02-15T11:27:46;27.38;;;5.40;;
74335;SDS011;62755;-33.398;-70.572;2023-02-15T11:30:40;28.90;;;4.88;;
74335;SDS011;62755;-33.398;-70.572;2023-02-15T11:33:33;21.92;;;5.35;;
74335;SDS011;62755;-33.398;-70.572;2023-02-15T11:36:27;25.58;;;4.88;;
74335;SDS011;62755;-33.398;-70.572;2023-02-15T11:39:22;17.92;;;4.68;;
74335;SDS011;62755;-33.398;-70.572;2023-02-15T11:42:15;21.30;;;4.68;;
74335;SDS011;62755;-33.398;-70.572;2023-02-15T11:45:14;17.27;;;4.25;;
74335;SDS011;62755;-33.398;-70.572;2023-02-15T11:48:12;22.30;;;5.13;;
74335;SDS011;62755;-33.398;-70.572;2023-02-15T11:51:03;35.08;;;4.75;;
74335;SDS011;62755;-33.398;-70.572;2023-02-15T11:53:53;23.77;;;4.25;;
74335;SDS011;62755;-33.398;-70.572;2023-02-15T11:56:42;20.42;;;3.88;;
74335;SDS011;62755;-33.398;-70.572;2023-02-15T11:59:32;30.98;;;7.07;;
74335;SDS011;62755;-33.398;-70.572;2023-02-15T12:02:24;19.88;;;4.00;;
74335;SDS011;62755;-33.398;-70.572;2023-02-15T12:05:18;32.08;;;5.55;;
74335;SDS011;62755;-33.398;-70.572;2023-02-15T12:08:15;30.03;;;4.23;;
74335;SDS011;62755;-33.398;-70.572;2023-02-15T12:11:08;19.27;;;3.70;;
74335;SDS011;62755;-33.398;-70.572;2023-02-15T12:14:01;18.73;;;3.53;;
74335;SDS011;62755;-33.398;-70.572;2023-02-15T12:16:53;16.63;;;4.47;;
74335;SDS011;62755;-33.398;-70.572;2023-02-15T12:19:45;19.17;;;4.30;;
74335;SDS011;62755;-33.398;-70.572;2023-02-15T12:22:41;17.55;;;3.83;;
74335;SDS011;62755;-33.398;-70.572;2023-02-15T12:25:37;31.33;;;8.07;;
74335;SDS011;62755;-33.398;-70.572;2023-02-15T12:28:31;23.42;;;4.90;;
74335;SDS011;62755;-33.398;-70.572;2023-02-15T12:31:22;19.65;;;4.70;;
74335;SDS011;62755;-33.398;-70.572;2023-02-15T12:34:17;19.83;;;5.60;;
74335;SDS011;62755;-33.398;-70.572;2023-02-15T12:37:15;33.88;;;5.50;;
74335;SDS011;62755;-33.398;-70.572;2023-02-15T12:40:20;22.08;;;4.93;;
74335;SDS011;62755;-33.398;-70.572;2023-02-15T12:43:17;23.23;;;5.22;;
74335;SDS011;62755;-33.398;-70.572;2023-02-15T12:46:19;29.73;;;5.35;;
74335;SDS011;62755;-33.398;-70.572;2023-02-15T12:49:16;31.88;;;5.18;;
74335;SDS011;62755;-33.398;-70.572;2023-02-15T12:55:16;35.63;;;5.00;;
74335;SDS011;62755;-33.398;-70.572;2023-02-15T12:58:15;20.75;;;4.78;;
74335;SDS011;62755;-33.398;-70.572;2023-02-15T13:01:12;27.00;;;4.95;;
74335;SDS011;62755;-33.398;-70.572;2023-02-15T13:04:03;21.80;;;4.47;;
74335;SDS011;62755;-33.398;-70.572;2023-02-15T13:06:55;18.75;;;3.88;;
74335;SDS011;62755;-33.398;-70.572;2023-02-15T13:09:46;22.92;;;4.03;;
74335;SDS011;62755;-33.398;-70.572;2023-02-15T13:12:38;21.90;;;4.03;;
74335;SDS011;62755;-33.398;-70.572;2023-02-15T13:15:35;26.98;;;4.18;;
74335;SDS011;62755;-33.398;-70.572;2023-02-15T13:18:29;28.60;;;4.53;;
74335;SDS011;62755;-33.398;-70.572;2023-02-15T13:21:21;21.27;;;4.38;;
74335;SDS011;62755;-33.398;-70.572;2023-02-15T13:24:17;17.15;;;3.70;;
74335;SDS011;62755;-33.398;-70.572;2023-02-15T13:27:12;16.45;;;4.93;;
74335;SDS011;62755;-33.398;-70.572;2023-02-15T13:30:10;18.13;;;4.00;;
74335;SDS011;62755;-33.398;-70.572;2023-02-15T13:33:10;18.70;;;4.07;;
74335;SDS011;62755;-33.398;-70.572;2023-02-15T13:39:01;15.80;;;4.13;;
74335;SDS011;62755;-33.398;-70.572;2023-02-15T13:42:00;20.10;;;3.88;;
74335;SDS011;62755;-33.398;-70.572;2023-02-15T13:45:13;16.15;;;3.67;;
74335;SDS011;62755;-33.398;-70.572;2023-02-15T13:48:17;16.92;;;3.63;;
74335;SDS011;62755;-33.398;-70.572;2023-02-15T13:51:14;19.58;;;4.45;;
74335;SDS011;62755;-33.398;-70.572;2023-02-15T13:54:15;22.20;;;3.72;;
74335;SDS011;62755;-33.398;-70.572;2023-02-15T13:57:29;19.10;;;3.78;;
74335;SDS011;62755;-33.398;-70.572;2023-02-15T14:00:38;18.48;;;3.95;;
74335;SDS011;62755;-33.398;-70.572;2023-02-15T14:03:54;21.42;;;3.75;;
74335;SDS011;62755;-33.398;-70.572;2023-02-15T14:07:04;20.70;;;3.78;;
74335;SDS011;62755;-33.398;-70.572;2023-02-15T14:16:51;23.75;;;4.55;;
74335;SDS011;62755;-33.398;-70.572;2023-02-15T14:19:50;24.05;;;4.43;;
74335;SDS011;62755;-33.398;-70.572;2023-02-15T14:22:44;28.10;;;4.68;;
74335;SDS011;62755;-33.398;-70.572;2023-02-15T14:25:39;28.83;;;4.65;;
74335;SDS011;62755;-33.398;-70.572;2023-02-15T14:28:36;35.20;;;5.10;;
74335;SDS011;62755;-33.398;-70.572;2023-02-15T14:31:30;28.95;;;5.35;;
74335;SDS011;62755;-33.398;-70.572;2023-02-15T14:34:27;24.05;;;7.07;;
74335;SDS011;62755;-33.398;-70.572;2023-02-15T14:37:31;29.38;;;5.78;;
74335;SDS011;62755;-33.398;-70.572;2023-02-15T14:40:32;21.45;;;5.53;;
74335;SDS011;62755;-33.398;-70.572;2023-02-15T14:43:47;27.30;;;5.38;;
74335;SDS011;62755;-33.398;-70.572;2023-02-15T14:46:42;24.35;;;5.15;;
74335;SDS011;62755;-33.398;-70.572;2023-02-15T14:49:38;17.90;;;4.40;;
74335;SDS011;62755;-33.398;-70.572;2023-02-15T14:52:28;31.05;;;4.88;;
74335;SDS011;62755;-33.398;-70.572;2023-02-15T14:55:24;29.33;;;4.95;;
74335;SDS011;62755;-33.398;-70.572;2023-02-15T14:58:23;16.42;;;4.30;;
74335;SDS011;62755;-33.398;-70.572;2023-02-15T15:01:13;27.08;;;4.05;;
74335;SDS011;62755;-33.398;-70.572;2023-02-15T15:04:03;23.20;;;4.13;;
74335;SDS011;62755;-33.398;-70.572;2023-02-15T15:07:01;22.17;;;4.10;;
74335;SDS011;62755;-33.398;-70.572;2023-02-15T15:10:02;33.25;;;4.35;;
74335;SDS011;62755;-33.398;-70.572;2023-02-15T15:13:34;12.68;;;3.65;;
74335;SDS011;62755;-33.398;-70.572;2023-02-15T15:16:29;16.88;;;4.15;;
74335;SDS011;62755;-33.398;-70.572;2023-02-15T15:22:48;20.65;;;4.47;;
74335;SDS011;62755;-33.398;-70.572;2023-02-15T15:25:42;26.98;;;3.90;;
74335;SDS011;62755;-33.398;-70.572;2023-02-15T15:31:47;17.08;;;3.90;;
74335;SDS011;62755;-33.398;-70.572;2023-02-15T15:34:45;17.30;;;3.50;;
74335;SDS011;62755;-33.398;-70.572;2023-02-15T15:38:05;16.60;;;3.40;;
74335;SDS011;62755;-33.398;-70.572;2023-02-15T15:41:17;20.38;;;3.53;;
74335;SDS011;62755;-33.398;-70.572;2023-02-15T15:44:31;18.10;;;3.15;;
74335;SDS011;62755;-33.398;-70.572;2023-02-15T15:47:52;13.45;;;4.10;;
74335;SDS011;62755;-33.398;-70.572;2023-02-15T15:50:53;12.23;;;3.30;;
74335;SDS011;62755;-33.398;-70.572;2023-02-15T15:53:46;17.45;;;3.90;;
74335;SDS011;62755;-33.398;-70.572;2023-02-15T15:56:39;11.75;;;3.33;;
74335;SDS011;62755;-33.398;-70.572;2023-02-15T15:59:33;18.73;;;3.28;;
74335;SDS011;62755;-33.398;-70.572;2023-02-15T16:02:22;15.75;;;3.92;;
74335;SDS011;62755;-33.398;-70.572;2023-02-15T16:05:12;20.17;;;3.20;;
74335;SDS011;62755;-33.398;-70.572;2023-02-15T16:08:02;13.63;;;3.30;;
74335;SDS011;62755;-33.398;-70.572;2023-02-15T16:10:53;13.48;;;3.65;;
74335;SDS011;62755;-33.398;-70.572;2023-02-15T16:13:43;21.40;;;3.92;;
74335;SDS011;62755;-33.398;-70.572;2023-02-15T16:16:33;21.50;;;4.20;;
74335;SDS011;62755;-33.398;-70.572;2023-02-15T16:19:23;21.38;;;3.72;;
74335;SDS011;62755;-33.398;-70.572;2023-02-15T16:22:15;18.70;;;3.38;;
74335;SDS011;62755;-33.398;-70.572;2023-02-15T16:25:13;19.77;;;3.20;;
74335;SDS011;62755;-33.398;-70.572;2023-02-15T16:28:15;23.83;;;4.47;;
74335;SDS011;62755;-33.398;-70.572;2023-02-15T16:31:06;19.50;;;3.97;;
74335;SDS011;62755;-33.398;-70.572;2023-02-15T16:33:59;17.88;;;3.42;;
74335;SDS011;62755;-33.398;-70.572;2023-02-15T16:36:48;19.42;;;3.50;;
74335;SDS011;62755;-33.398;-70.572;2023-02-15T16:39:40;25.52;;;3.75;;
74335;SDS011;62755;-33.398;-70.572;2023-02-15T16:42:30;15.35;;;3.35;;
74335;SDS011;62755;-33.398;-70.572;2023-02-15T16:45:23;20.50;;;2.90;;
74335;SDS011;62755;-33.398;-70.572;2023-02-15T16:48:16;18.25;;;3.03;;
74335;SDS011;62755;-33.398;-70.572;2023-02-15T16:51:09;11.07;;;2.92;;
74335;SDS011;62755;-33.398;-70.572;2023-02-15T16:54:07;11.68;;;3.17;;
74335;SDS011;62755;-33.398;-70.572;2023-02-15T16:57:03;18.23;;;3.50;;
74335;SDS011;62755;-33.398;-70.572;2023-02-15T16:59:53;21.92;;;3.58;;
74335;SDS011;62755;-33.398;-70.572;2023-02-15T17:02:54;15.57;;;4.35;;
74335;SDS011;62755;-33.398;-70.572;2023-02-15T17:05:48;22.48;;;3.72;;
74335;SDS011;62755;-33.398;-70.572;2023-02-15T17:08:41;21.40;;;4.78;;